sensor_id;sensor_type;location;lat;lon;timestamp;P1;durP1;ratioP1;P2;durP2;ratioP2
9248;SDS011;4660;41.768;26.198;2022-07-05T00:00:43;4.40;;;2.40;;
9248;SDS011;4660;41.768;26.198;2022-07-05T00:03:09;3.33;;;2.42;;
9248;SDS011;4660;41.768;26.198;2022-07-05T00:05:36;2.92;;;2.30;;
9248;SDS011;4660;41.768;26.198;2022-07-05T00:08:02;5.55;;;3.10;;
9248;SDS011;4660;41.768;26.198;2022-07-05T00:10:29;3.63;;;3.05;;
9248;SDS011;4660;41.768;26.198;2022-07-05T00:12:55;3.60;;;2.90;;
9248;SDS011;4660;41.768;26.198;2022-07-05T00:15:21;4.88;;;2.63;;
9248;SDS011;4660;41.768;26.198;2022-07-05T00:17:47;4.85;;;3.10;;
9248;SDS011;4660;41.768;26.198;2022-07-05T00:20:13;3.30;;;2.78;;
9248;SDS011;4660;41.768;26.198;2022-07-05T00:22:39;9.40;;;4.18;;
9248;SDS011;4660;41.768;26.198;2022-07-05T00:25:05;5.03;;;3.17;;
9248;SDS011;4660;41.768;26.198;2022-07-05T00:27:31;3.50;;;2.88;;
9248;SDS011;4660;41.768;26.198;2022-07-05T00:29:56;10.32;;;3.45;;
9248;SDS011;4660;41.768;26.198;2022-07-05T00:32:22;5.47;;;3.38;;
9248;SDS011;4660;41.768;26.198;2022-07-05T00:34:47;4.15;;;3.20;;
9248;SDS011;4660;41.768;26.198;2022-07-05T00:37:13;3.85;;;3.22;;
9248;SDS011;4660;41.768;26.198;2022-07-05T00:39:39;6.80;;;3.63;;
9248;SDS011;4660;41.768;26.198;2022-07-05T00:42:04;6.78;;;4.93;;
9248;SDS011;4660;41.768;26.198;2022-07-05T00:44:34;5.15;;;4.28;;
9248;SDS011;4660;41.768;26.198;2022-07-05T00:47:03;5.32;;;4.18;;
9248;SDS011;4660;41.768;26.198;2022-07-05T00:49:29;7.80;;;4.72;;
9248;SDS011;4660;41.768;26.198;2022-07-05T00:51:56;6.67;;;4.47;;
9248;SDS011;4660;41.768;26.198;2022-07-05T00:54:23;5.43;;;3.92;;
9248;SDS011;4660;41.768;26.198;2022-07-05T00:56:49;8.02;;;4.22;;
9248;SDS011;4660;41.768;26.198;2022-07-05T00:59:15;4.30;;;3.90;;
9248;SDS011;4660;41.768;26.198;2022-07-05T01:01:40;6.65;;;3.55;;
9248;SDS011;4660;41.768;26.198;2022-07-05T01:04:06;7.87;;;4.70;;
9248;SDS011;4660;41.768;26.198;2022-07-05T01:06:32;6.47;;;4.10;;
9248;SDS011;4660;41.768;26.198;2022-07-05T01:08:58;7.57;;;5.20;;
9248;SDS011;4660;41.768;26.198;2022-07-05T01:11:24;5.43;;;4.30;;
9248;SDS011;4660;41.768;26.198;2022-07-05T01:13:50;5.70;;;4.28;;
9248;SDS011;4660;41.768;26.198;2022-07-05T01:16:16;5.30;;;4.10;;
9248;SDS011;4660;41.768;26.198;2022-07-05T01:18:42;6.70;;;4.30;;
9248;SDS011;4660;41.768;26.198;2022-07-05T01:21:09;3.95;;;3.55;;
9248;SDS011;4660;41.768;26.198;2022-07-05T01:23:38;4.30;;;3.88;;
9248;SDS011;4660;41.768;26.198;2022-07-05T01:26:05;9.00;;;4.43;;
9248;SDS011;4660;41.768;26.198;2022-07-05T01:28:32;4.20;;;3.83;;
9248;SDS011;4660;41.768;26.198;2022-07-05T01:30:57;10.07;;;4.55;;
9248;SDS011;4660;41.768;26.198;2022-07-05T01:33:27;4.53;;;4.07;;
9248;SDS011;4660;41.768;26.198;2022-07-05T01:35:54;5.15;;;4.65;;
9248;SDS011;4660;41.768;26.198;2022-07-05T01:38:20;5.13;;;4.50;;
9248;SDS011;4660;41.768;26.198;2022-07-05T01:40:46;18.83;;;5.18;;
9248;SDS011;4660;41.768;26.198;2022-07-05T01:43:15;7.95;;;4.88;;
9248;SDS011;4660;41.768;26.198;2022-07-05T01:45:41;6.18;;;4.20;;
9248;SDS011;4660;41.768;26.198;2022-07-05T01:48:09;7.30;;;4.37;;
9248;SDS011;4660;41.768;26.198;2022-07-05T01:50:38;5.18;;;4.57;;
9248;SDS011;4660;41.768;26.198;2022-07-05T01:53:08;4.67;;;4.27;;
9248;SDS011;4660;41.768;26.198;2022-07-05T01:55:36;6.57;;;4.90;;
9248;SDS011;4660;41.768;26.198;2022-07-05T01:58:04;6.20;;;5.60;;
9248;SDS011;4660;41.768;26.198;2022-07-05T02:00:30;7.25;;;5.85;;
9248;SDS011;4660;41.768;26.198;2022-07-05T02:02:55;7.40;;;6.17;;
9248;SDS011;4660;41.768;26.198;2022-07-05T02:05:23;15.77;;;7.10;;
9248;SDS011;4660;41.768;26.198;2022-07-05T02:07:49;10.15;;;6.15;;
9248;SDS011;4660;41.768;26.198;2022-07-05T02:10:15;6.47;;;5.70;;
9248;SDS011;4660;41.768;26.198;2022-07-05T02:12:41;7.23;;;5.53;;
9248;SDS011;4660;41.768;26.198;2022-07-05T02:15:07;5.30;;;4.83;;
9248;SDS011;4660;41.768;26.198;2022-07-05T02:17:32;9.10;;;4.47;;
9248;SDS011;4660;41.768;26.198;2022-07-05T02:19:58;8.60;;;4.87;;
9248;SDS011;4660;41.768;26.198;2022-07-05T02:22:24;5.57;;;4.95;;
9248;SDS011;4660;41.768;26.198;2022-07-05T02:24:50;9.30;;;5.35;;
9248;SDS011;4660;41.768;26.198;2022-07-05T02:27:16;9.45;;;5.28;;
9248;SDS011;4660;41.768;26.198;2022-07-05T02:29:42;10.75;;;4.50;;
9248;SDS011;4660;41.768;26.198;2022-07-05T02:32:07;6.25;;;4.97;;
9248;SDS011;4660;41.768;26.198;2022-07-05T02:34:33;6.75;;;4.13;;
9248;SDS011;4660;41.768;26.198;2022-07-05T02:36:58;6.88;;;4.53;;
9248;SDS011;4660;41.768;26.198;2022-07-05T02:39:24;4.55;;;3.72;;
9248;SDS011;4660;41.768;26.198;2022-07-05T02:41:49;7.20;;;3.53;;
9248;SDS011;4660;41.768;26.198;2022-07-05T02:44:15;4.03;;;3.45;;
9248;SDS011;4660;41.768;26.198;2022-07-05T02:46:41;4.07;;;3.50;;
9248;SDS011;4660;41.768;26.198;2022-07-05T02:49:06;7.05;;;4.05;;
9248;SDS011;4660;41.768;26.198;2022-07-05T02:51:31;7.07;;;3.95;;
9248;SDS011;4660;41.768;26.198;2022-07-05T02:53:57;7.63;;;3.53;;
9248;SDS011;4660;41.768;26.198;2022-07-05T02:56:23;5.93;;;3.15;;
9248;SDS011;4660;41.768;26.198;2022-07-05T02:58:48;6.13;;;4.25;;
9248;SDS011;4660;41.768;26.198;2022-07-05T03:01:14;4.78;;;4.28;;
9248;SDS011;4660;41.768;26.198;2022-07-05T03:03:40;5.60;;;4.30;;
9248;SDS011;4660;41.768;26.198;2022-07-05T03:06:05;4.68;;;4.18;;
9248;SDS011;4660;41.768;26.198;2022-07-05T03:08:31;10.05;;;4.50;;
9248;SDS011;4660;41.768;26.198;2022-07-05T03:10:56;4.78;;;3.67;;
9248;SDS011;4660;41.768;26.198;2022-07-05T03:13:22;6.85;;;3.30;;
9248;SDS011;4660;41.768;26.198;2022-07-05T03:15:49;6.93;;;4.18;;
9248;SDS011;4660;41.768;26.198;2022-07-05T03:18:14;5.50;;;3.88;;
9248;SDS011;4660;41.768;26.198;2022-07-05T03:20:40;4.70;;;3.80;;
9248;SDS011;4660;41.768;26.198;2022-07-05T03:23:05;5.07;;;3.42;;
9248;SDS011;4660;41.768;26.198;2022-07-05T03:25:31;3.50;;;3.17;;
9248;SDS011;4660;41.768;26.198;2022-07-05T03:27:57;6.50;;;3.50;;
9248;SDS011;4660;41.768;26.198;2022-07-05T03:30:23;5.60;;;3.60;;
9248;SDS011;4660;41.768;26.198;2022-07-05T03:32:49;6.38;;;3.78;;
9248;SDS011;4660;41.768;26.198;2022-07-05T03:35:15;5.13;;;3.60;;
9248;SDS011;4660;41.768;26.198;2022-07-05T03:37:41;6.70;;;3.60;;
9248;SDS011;4660;41.768;26.198;2022-07-05T03:40:06;6.03;;;3.85;;
9248;SDS011;4660;41.768;26.198;2022-07-05T03:42:32;9.15;;;4.10;;
9248;SDS011;4660;41.768;26.198;2022-07-05T03:45:00;5.97;;;3.55;;
9248;SDS011;4660;41.768;26.198;2022-07-05T03:47:26;9.18;;;4.68;;
9248;SDS011;4660;41.768;26.198;2022-07-05T03:49:53;6.75;;;4.28;;
9248;SDS011;4660;41.768;26.198;2022-07-05T03:52:19;6.78;;;4.38;;
9248;SDS011;4660;41.768;26.198;2022-07-05T03:54:45;4.68;;;3.78;;
9248;SDS011;4660;41.768;26.198;2022-07-05T03:57:11;5.97;;;4.28;;
9248;SDS011;4660;41.768;26.198;2022-07-05T03:59:38;6.93;;;3.60;;
9248;SDS011;4660;41.768;26.198;2022-07-05T04:02:04;6.28;;;4.05;;
9248;SDS011;4660;41.768;26.198;2022-07-05T04:04:30;6.50;;;3.33;;
9248;SDS011;4660;41.768;26.198;2022-07-05T04:06:55;5.15;;;3.50;;
9248;SDS011;4660;41.768;26.198;2022-07-05T04:09:21;7.35;;;4.45;;
9248;SDS011;4660;41.768;26.198;2022-07-05T04:11:46;3.70;;;3.30;;
9248;SDS011;4660;41.768;26.198;2022-07-05T04:14:12;7.20;;;3.83;;
9248;SDS011;4660;41.768;26.198;2022-07-05T04:16:38;4.60;;;3.47;;
9248;SDS011;4660;41.768;26.198;2022-07-05T04:19:03;5.68;;;3.80;;
9248;SDS011;4660;41.768;26.198;2022-07-05T04:21:29;7.18;;;3.65;;
9248;SDS011;4660;41.768;26.198;2022-07-05T04:23:55;3.67;;;3.38;;
9248;SDS011;4660;41.768;26.198;2022-07-05T04:26:20;5.57;;;4.22;;
9248;SDS011;4660;41.768;26.198;2022-07-05T04:28:46;7.32;;;3.28;;
9248;SDS011;4660;41.768;26.198;2022-07-05T04:31:11;3.72;;;3.03;;
9248;SDS011;4660;41.768;26.198;2022-07-05T04:33:37;9.60;;;3.22;;
9248;SDS011;4660;41.768;26.198;2022-07-05T04:36:03;4.00;;;3.25;;
9248;SDS011;4660;41.768;26.198;2022-07-05T04:38:28;2.95;;;2.70;;
9248;SDS011;4660;41.768;26.198;2022-07-05T04:40:54;5.32;;;3.08;;
9248;SDS011;4660;41.768;26.198;2022-07-05T04:43:19;7.40;;;3.45;;
9248;SDS011;4660;41.768;26.198;2022-07-05T04:45:45;4.05;;;3.20;;
9248;SDS011;4660;41.768;26.198;2022-07-05T04:48:11;4.40;;;3.08;;
9248;SDS011;4660;41.768;26.198;2022-07-05T04:50:36;6.63;;;3.22;;
9248;SDS011;4660;41.768;26.198;2022-07-05T04:53:02;6.35;;;2.80;;
9248;SDS011;4660;41.768;26.198;2022-07-05T04:55:28;6.50;;;2.90;;
9248;SDS011;4660;41.768;26.198;2022-07-05T04:57:53;6.05;;;2.92;;
9248;SDS011;4660;41.768;26.198;2022-07-05T05:00:19;4.72;;;2.95;;
9248;SDS011;4660;41.768;26.198;2022-07-05T05:02:44;7.85;;;3.10;;
9248;SDS011;4660;41.768;26.198;2022-07-05T05:05:10;6.30;;;2.80;;
9248;SDS011;4660;41.768;26.198;2022-07-05T05:07:35;5.20;;;2.78;;
9248;SDS011;4660;41.768;26.198;2022-07-05T05:10:04;4.43;;;2.60;;
9248;SDS011;4660;41.768;26.198;2022-07-05T05:12:30;3.83;;;3.10;;
9248;SDS011;4660;41.768;26.198;2022-07-05T05:14:56;4.90;;;3.45;;
9248;SDS011;4660;41.768;26.198;2022-07-05T05:17:22;8.38;;;3.83;;
9248;SDS011;4660;41.768;26.198;2022-07-05T05:19:47;4.05;;;2.75;;
9248;SDS011;4660;41.768;26.198;2022-07-05T05:22:13;5.18;;;2.72;;
9248;SDS011;4660;41.768;26.198;2022-07-05T05:24:38;5.72;;;3.20;;
9248;SDS011;4660;41.768;26.198;2022-07-05T05:27:04;5.88;;;3.20;;
9248;SDS011;4660;41.768;26.198;2022-07-05T05:29:30;4.32;;;3.45;;
9248;SDS011;4660;41.768;26.198;2022-07-05T05:31:55;5.38;;;3.22;;
9248;SDS011;4660;41.768;26.198;2022-07-05T05:34:21;7.35;;;3.55;;
9248;SDS011;4660;41.768;26.198;2022-07-05T05:36:46;5.60;;;3.50;;
9248;SDS011;4660;41.768;26.198;2022-07-05T05:39:12;5.35;;;3.72;;
9248;SDS011;4660;41.768;26.198;2022-07-05T05:41:38;5.30;;;3.92;;
9248;SDS011;4660;41.768;26.198;2022-07-05T05:44:04;8.45;;;3.55;;
9248;SDS011;4660;41.768;26.198;2022-07-05T05:46:30;15.32;;;3.92;;
9248;SDS011;4660;41.768;26.198;2022-07-05T05:48:56;5.70;;;3.50;;
9248;SDS011;4660;41.768;26.198;2022-07-05T05:51:21;7.13;;;4.07;;
9248;SDS011;4660;41.768;26.198;2022-07-05T05:53:47;6.40;;;4.20;;
9248;SDS011;4660;41.768;26.198;2022-07-05T05:56:12;4.57;;;4.05;;
9248;SDS011;4660;41.768;26.198;2022-07-05T05:58:38;4.28;;;3.80;;
9248;SDS011;4660;41.768;26.198;2022-07-05T06:01:04;8.05;;;3.80;;
9248;SDS011;4660;41.768;26.198;2022-07-05T06:03:30;4.63;;;3.65;;
9248;SDS011;4660;41.768;26.198;2022-07-05T06:05:55;7.75;;;3.60;;
9248;SDS011;4660;41.768;26.198;2022-07-05T06:08:21;10.45;;;3.35;;
9248;SDS011;4660;41.768;26.198;2022-07-05T06:10:48;7.85;;;3.20;;
9248;SDS011;4660;41.768;26.198;2022-07-05T06:13:14;7.82;;;3.38;;
9248;SDS011;4660;41.768;26.198;2022-07-05T06:15:40;7.63;;;3.63;;
9248;SDS011;4660;41.768;26.198;2022-07-05T06:18:07;9.70;;;3.63;;
9248;SDS011;4660;41.768;26.198;2022-07-05T06:20:34;5.97;;;3.78;;
9248;SDS011;4660;41.768;26.198;2022-07-05T06:23:02;5.95;;;3.42;;
9248;SDS011;4660;41.768;26.198;2022-07-05T06:25:28;9.18;;;3.35;;
9248;SDS011;4660;41.768;26.198;2022-07-05T06:27:56;4.63;;;3.22;;
9248;SDS011;4660;41.768;26.198;2022-07-05T06:30:25;6.07;;;3.38;;
9248;SDS011;4660;41.768;26.198;2022-07-05T06:32:52;6.57;;;3.05;;
9248;SDS011;4660;41.768;26.198;2022-07-05T06:35:18;5.38;;;3.13;;
9248;SDS011;4660;41.768;26.198;2022-07-05T06:40:27;4.07;;;3.35;;
9248;SDS011;4660;41.768;26.198;2022-07-05T06:43:08;6.60;;;3.92;;
9248;SDS011;4660;41.768;26.198;2022-07-05T06:45:35;4.35;;;3.60;;
9248;SDS011;4660;41.768;26.198;2022-07-05T06:48:01;5.22;;;3.50;;
9248;SDS011;4660;41.768;26.198;2022-07-05T06:50:31;5.50;;;3.28;;
9248;SDS011;4660;41.768;26.198;2022-07-05T06:53:00;5.38;;;3.33;;
9248;SDS011;4660;41.768;26.198;2022-07-05T06:55:27;4.78;;;3.70;;
9248;SDS011;4660;41.768;26.198;2022-07-05T06:57:56;5.10;;;3.20;;
9248;SDS011;4660;41.768;26.198;2022-07-05T07:00:23;7.45;;;3.10;;
9248;SDS011;4660;41.768;26.198;2022-07-05T07:02:49;5.25;;;3.20;;
9248;SDS011;4660;41.768;26.198;2022-07-05T07:05:15;8.40;;;3.55;;
9248;SDS011;4660;41.768;26.198;2022-07-05T07:07:40;3.53;;;3.20;;
9248;SDS011;4660;41.768;26.198;2022-07-05T07:10:25;5.68;;;3.08;;
9248;SDS011;4660;41.768;26.198;2022-07-05T07:12:50;5.57;;;3.47;;
9248;SDS011;4660;41.768;26.198;2022-07-05T07:15:16;5.85;;;3.15;;
9248;SDS011;4660;41.768;26.198;2022-07-05T07:17:41;4.43;;;3.40;;
9248;SDS011;4660;41.768;26.198;2022-07-05T07:20:07;4.72;;;3.28;;
9248;SDS011;4660;41.768;26.198;2022-07-05T07:22:33;6.50;;;3.13;;
9248;SDS011;4660;41.768;26.198;2022-07-05T07:24:59;2.70;;;2.42;;
9248;SDS011;4660;41.768;26.198;2022-07-05T07:27:25;4.75;;;2.90;;
9248;SDS011;4660;41.768;26.198;2022-07-05T07:29:50;4.10;;;2.80;;
9248;SDS011;4660;41.768;26.198;2022-07-05T07:32:16;7.25;;;2.78;;
9248;SDS011;4660;41.768;26.198;2022-07-05T07:34:44;6.25;;;2.97;;
9248;SDS011;4660;41.768;26.198;2022-07-05T07:37:10;11.88;;;3.00;;
9248;SDS011;4660;41.768;26.198;2022-07-05T07:39:39;5.53;;;2.60;;
9248;SDS011;4660;41.768;26.198;2022-07-05T07:42:06;7.18;;;2.60;;
9248;SDS011;4660;41.768;26.198;2022-07-05T07:44:32;3.65;;;2.65;;
9248;SDS011;4660;41.768;26.198;2022-07-05T07:46:58;6.38;;;2.60;;
9248;SDS011;4660;41.768;26.198;2022-07-05T07:49:24;3.60;;;2.42;;
9248;SDS011;4660;41.768;26.198;2022-07-05T07:51:50;4.20;;;2.45;;
9248;SDS011;4660;41.768;26.198;2022-07-05T07:54:16;3.13;;;2.45;;
9248;SDS011;4660;41.768;26.198;2022-07-05T07:56:42;5.30;;;2.80;;
9248;SDS011;4660;41.768;26.198;2022-07-05T07:59:09;3.58;;;2.63;;
9248;SDS011;4660;41.768;26.198;2022-07-05T08:01:35;4.28;;;2.50;;
9248;SDS011;4660;41.768;26.198;2022-07-05T08:04:01;3.30;;;2.53;;
9248;SDS011;4660;41.768;26.198;2022-07-05T08:06:27;5.63;;;2.60;;
9248;SDS011;4660;41.768;26.198;2022-07-05T08:08:54;2.92;;;2.42;;
9248;SDS011;4660;41.768;26.198;2022-07-05T08:11:21;7.13;;;2.67;;
9248;SDS011;4660;41.768;26.198;2022-07-05T08:13:46;3.33;;;2.70;;
9248;SDS011;4660;41.768;26.198;2022-07-05T08:16:13;2.70;;;2.30;;
9248;SDS011;4660;41.768;26.198;2022-07-05T08:18:38;4.65;;;2.38;;
9248;SDS011;4660;41.768;26.198;2022-07-05T08:21:23;4.70;;;2.50;;
9248;SDS011;4660;41.768;26.198;2022-07-05T08:24:18;6.53;;;2.60;;
9248;SDS011;4660;41.768;26.198;2022-07-05T08:26:44;2.78;;;2.10;;
9248;SDS011;4660;41.768;26.198;2022-07-05T08:29:12;3.90;;;2.20;;
9248;SDS011;4660;41.768;26.198;2022-07-05T08:31:40;5.07;;;2.97;;
9248;SDS011;4660;41.768;26.198;2022-07-05T08:34:06;7.15;;;2.40;;
9248;SDS011;4660;41.768;26.198;2022-07-05T08:36:32;4.50;;;2.45;;
9248;SDS011;4660;41.768;26.198;2022-07-05T08:38:58;4.20;;;2.35;;
9248;SDS011;4660;41.768;26.198;2022-07-05T08:41:24;3.65;;;2.00;;
9248;SDS011;4660;41.768;26.198;2022-07-05T08:43:50;6.68;;;2.38;;
9248;SDS011;4660;41.768;26.198;2022-07-05T08:46:17;6.70;;;2.58;;
9248;SDS011;4660;41.768;26.198;2022-07-05T08:48:44;2.58;;;2.28;;
9248;SDS011;4660;41.768;26.198;2022-07-05T08:51:19;6.68;;;2.50;;
9248;SDS011;4660;41.768;26.198;2022-07-05T08:53:52;3.60;;;2.40;;
9248;SDS011;4660;41.768;26.198;2022-07-05T08:56:19;2.60;;;2.40;;
9248;SDS011;4660;41.768;26.198;2022-07-05T08:58:45;4.20;;;2.20;;
9248;SDS011;4660;41.768;26.198;2022-07-05T09:01:11;3.25;;;2.58;;
9248;SDS011;4660;41.768;26.198;2022-07-05T09:03:48;5.45;;;2.10;;
9248;SDS011;4660;41.768;26.198;2022-07-05T09:06:24;7.63;;;2.67;;
9248;SDS011;4660;41.768;26.198;2022-07-05T09:08:51;2.90;;;2.38;;
9248;SDS011;4660;41.768;26.198;2022-07-05T09:11:23;3.88;;;2.25;;
9248;SDS011;4660;41.768;26.198;2022-07-05T09:13:50;8.73;;;2.70;;
9248;SDS011;4660;41.768;26.198;2022-07-05T09:16:17;3.53;;;2.50;;
9248;SDS011;4660;41.768;26.198;2022-07-05T09:18:44;4.70;;;2.72;;
9248;SDS011;4660;41.768;26.198;2022-07-05T09:21:14;5.35;;;2.42;;
9248;SDS011;4660;41.768;26.198;2022-07-05T09:23:40;3.90;;;2.72;;
9248;SDS011;4660;41.768;26.198;2022-07-05T09:26:06;6.90;;;2.38;;
9248;SDS011;4660;41.768;26.198;2022-07-05T09:28:31;5.45;;;2.08;;
9248;SDS011;4660;41.768;26.198;2022-07-05T09:30:57;3.20;;;2.45;;
9248;SDS011;4660;41.768;26.198;2022-07-05T09:33:22;2.63;;;2.38;;
9248;SDS011;4660;41.768;26.198;2022-07-05T09:35:51;3.58;;;2.15;;
9248;SDS011;4660;41.768;26.198;2022-07-05T09:38:20;4.25;;;2.53;;
9248;SDS011;4660;41.768;26.198;2022-07-05T09:40:47;3.85;;;2.40;;
9248;SDS011;4660;41.768;26.198;2022-07-05T09:43:15;3.63;;;2.38;;
9248;SDS011;4660;41.768;26.198;2022-07-05T09:48:54;2.67;;;2.20;;
9248;SDS011;4660;41.768;26.198;2022-07-05T09:51:20;4.53;;;2.20;;
9248;SDS011;4660;41.768;26.198;2022-07-05T09:53:53;3.55;;;2.58;;
9248;SDS011;4660;41.768;26.198;2022-07-05T09:56:20;4.50;;;2.38;;
9248;SDS011;4660;41.768;26.198;2022-07-05T09:58:46;2.88;;;2.22;;
9248;SDS011;4660;41.768;26.198;2022-07-05T10:01:28;4.20;;;2.47;;
9248;SDS011;4660;41.768;26.198;2022-07-05T10:03:56;3.50;;;2.47;;
9248;SDS011;4660;41.768;26.198;2022-07-05T10:06:23;6.70;;;2.47;;
9248;SDS011;4660;41.768;26.198;2022-07-05T10:08:50;4.30;;;2.45;;
9248;SDS011;4660;41.768;26.198;2022-07-05T10:11:18;3.55;;;2.53;;
9248;SDS011;4660;41.768;26.198;2022-07-05T10:13:46;3.03;;;2.50;;
9248;SDS011;4660;41.768;26.198;2022-07-05T10:16:17;2.20;;;2.00;;
9248;SDS011;4660;41.768;26.198;2022-07-05T10:18:45;4.72;;;2.58;;
9248;SDS011;4660;41.768;26.198;2022-07-05T10:21:14;2.75;;;2.40;;
9248;SDS011;4660;41.768;26.198;2022-07-05T10:23:47;5.38;;;2.42;;
9248;SDS011;4660;41.768;26.198;2022-07-05T10:26:15;4.13;;;2.50;;
9248;SDS011;4660;41.768;26.198;2022-07-05T10:28:46;3.92;;;2.20;;
9248;SDS011;4660;41.768;26.198;2022-07-05T10:31:16;7.30;;;2.40;;
9248;SDS011;4660;41.768;26.198;2022-07-05T10:33:43;2.40;;;2.20;;
9248;SDS011;4660;41.768;26.198;2022-07-05T10:36:11;5.88;;;2.58;;
9248;SDS011;4660;41.768;26.198;2022-07-05T10:38:46;4.63;;;2.50;;
9248;SDS011;4660;41.768;26.198;2022-07-05T10:41:14;2.58;;;2.25;;
9248;SDS011;4660;41.768;26.198;2022-07-05T10:43:52;5.85;;;2.10;;
9248;SDS011;4660;41.768;26.198;2022-07-05T10:46:32;3.17;;;2.03;;
9248;SDS011;4660;41.768;26.198;2022-07-05T10:49:18;3.25;;;2.47;;
9248;SDS011;4660;41.768;26.198;2022-07-05T10:51:47;2.35;;;2.15;;
9248;SDS011;4660;41.768;26.198;2022-07-05T10:54:14;5.50;;;2.65;;
9248;SDS011;4660;41.768;26.198;2022-07-05T10:56:40;5.80;;;2.35;;
9248;SDS011;4660;41.768;26.198;2022-07-05T10:59:08;4.50;;;2.47;;
9248;SDS011;4660;41.768;26.198;2022-07-05T11:01:39;2.75;;;2.10;;
9248;SDS011;4660;41.768;26.198;2022-07-05T11:04:18;4.30;;;2.17;;
9248;SDS011;4660;41.768;26.198;2022-07-05T11:06:47;6.05;;;2.40;;
9248;SDS011;4660;41.768;26.198;2022-07-05T11:09:19;3.97;;;2.55;;
9248;SDS011;4660;41.768;26.198;2022-07-05T11:12:00;4.10;;;2.70;;
9248;SDS011;4660;41.768;26.198;2022-07-05T11:14:31;4.32;;;2.20;;
9248;SDS011;4660;41.768;26.198;2022-07-05T11:17:18;3.00;;;2.50;;
9248;SDS011;4660;41.768;26.198;2022-07-05T11:22:32;3.05;;;2.10;;
9248;SDS011;4660;41.768;26.198;2022-07-05T11:25:01;2.95;;;2.63;;
9248;SDS011;4660;41.768;26.198;2022-07-05T11:27:30;2.88;;;2.25;;
9248;SDS011;4660;41.768;26.198;2022-07-05T11:29:58;3.13;;;2.50;;
9248;SDS011;4660;41.768;26.198;2022-07-05T11:35:18;4.10;;;2.40;;
9248;SDS011;4660;41.768;26.198;2022-07-05T11:38:04;2.17;;;1.95;;
9248;SDS011;4660;41.768;26.198;2022-07-05T11:40:36;3.33;;;2.30;;
9248;SDS011;4660;41.768;26.198;2022-07-05T11:43:06;2.60;;;2.10;;
9248;SDS011;4660;41.768;26.198;2022-07-05T11:45:33;4.43;;;2.70;;
9248;SDS011;4660;41.768;26.198;2022-07-05T11:48:03;5.63;;;2.20;;
9248;SDS011;4660;41.768;26.198;2022-07-05T11:50:31;4.18;;;2.65;;
9248;SDS011;4660;41.768;26.198;2022-07-05T11:52:58;2.53;;;2.33;;
9248;SDS011;4660;41.768;26.198;2022-07-05T11:55:26;5.05;;;2.20;;
9248;SDS011;4660;41.768;26.198;2022-07-05T11:57:53;3.30;;;2.47;;
9248;SDS011;4660;41.768;26.198;2022-07-05T12:02:54;2.55;;;2.17;;
9248;SDS011;4660;41.768;26.198;2022-07-05T12:05:19;3.10;;;2.05;;
9248;SDS011;4660;41.768;26.198;2022-07-05T12:07:49;3.17;;;2.50;;
9248;SDS011;4660;41.768;26.198;2022-07-05T12:10:15;2.47;;;2.28;;
9248;SDS011;4660;41.768;26.198;2022-07-05T12:13:06;3.70;;;2.65;;
9248;SDS011;4660;41.768;26.198;2022-07-05T12:15:33;5.05;;;2.67;;
9248;SDS011;4660;41.768;26.198;2022-07-05T12:18:00;3.58;;;2.50;;
9248;SDS011;4660;41.768;26.198;2022-07-05T12:20:33;4.47;;;2.33;;
9248;SDS011;4660;41.768;26.198;2022-07-05T12:23:02;2.75;;;2.50;;
9248;SDS011;4660;41.768;26.198;2022-07-05T12:25:29;4.65;;;2.67;;
9248;SDS011;4660;41.768;26.198;2022-07-05T12:27:58;7.30;;;2.60;;
9248;SDS011;4660;41.768;26.198;2022-07-05T12:30:27;4.45;;;2.40;;
9248;SDS011;4660;41.768;26.198;2022-07-05T12:33:07;3.25;;;2.35;;
9248;SDS011;4660;41.768;26.198;2022-07-05T12:35:43;4.28;;;2.50;;
9248;SDS011;4660;41.768;26.198;2022-07-05T12:38:19;4.53;;;2.83;;
9248;SDS011;4660;41.768;26.198;2022-07-05T12:40:56;3.50;;;2.63;;
9248;SDS011;4660;41.768;26.198;2022-07-05T12:43:24;3.30;;;2.85;;
9248;SDS011;4660;41.768;26.198;2022-07-05T12:48:35;6.85;;;3.00;;
9248;SDS011;4660;41.768;26.198;2022-07-05T12:51:03;4.93;;;2.80;;
9248;SDS011;4660;41.768;26.198;2022-07-05T12:53:31;3.28;;;2.90;;
9248;SDS011;4660;41.768;26.198;2022-07-05T12:56:27;4.80;;;2.65;;
9248;SDS011;4660;41.768;26.198;2022-07-05T12:59:13;6.32;;;3.45;;
9248;SDS011;4660;41.768;26.198;2022-07-05T13:01:43;3.55;;;3.05;;
9248;SDS011;4660;41.768;26.198;2022-07-05T13:04:16;4.95;;;3.20;;
9248;SDS011;4660;41.768;26.198;2022-07-05T13:06:49;8.15;;;3.05;;
9248;SDS011;4660;41.768;26.198;2022-07-05T13:09:32;3.47;;;3.17;;
9248;SDS011;4660;41.768;26.198;2022-07-05T13:12:20;3.65;;;3.22;;
9248;SDS011;4660;41.768;26.198;2022-07-05T13:14:51;8.77;;;2.90;;
9248;SDS011;4660;41.768;26.198;2022-07-05T13:17:19;5.47;;;3.65;;
9248;SDS011;4660;41.768;26.198;2022-07-05T13:19:48;3.38;;;3.13;;
9248;SDS011;4660;41.768;26.198;2022-07-05T13:22:15;6.65;;;3.50;;
9248;SDS011;4660;41.768;26.198;2022-07-05T13:24:42;3.17;;;2.88;;
9248;SDS011;4660;41.768;26.198;2022-07-05T13:27:08;3.65;;;2.83;;
9248;SDS011;4660;41.768;26.198;2022-07-05T13:29:35;4.05;;;3.08;;
9248;SDS011;4660;41.768;26.198;2022-07-05T13:32:01;4.63;;;2.92;;
9248;SDS011;4660;41.768;26.198;2022-07-05T13:34:27;4.40;;;2.72;;
9248;SDS011;4660;41.768;26.198;2022-07-05T13:36:54;5.95;;;2.30;;
9248;SDS011;4660;41.768;26.198;2022-07-05T13:39:22;4.88;;;2.10;;
9248;SDS011;4660;41.768;26.198;2022-07-05T13:41:49;2.97;;;2.70;;
9248;SDS011;4660;41.768;26.198;2022-07-05T13:44:17;4.18;;;2.20;;
9248;SDS011;4660;41.768;26.198;2022-07-05T13:46:43;2.65;;;2.40;;
9248;SDS011;4660;41.768;26.198;2022-07-05T13:49:09;3.83;;;2.40;;
9248;SDS011;4660;41.768;26.198;2022-07-05T13:51:35;2.72;;;2.28;;
9248;SDS011;4660;41.768;26.198;2022-07-05T13:54:01;4.03;;;2.42;;
9248;SDS011;4660;41.768;26.198;2022-07-05T13:56:27;8.13;;;2.75;;
9248;SDS011;4660;41.768;26.198;2022-07-05T13:58:53;4.40;;;2.30;;
9248;SDS011;4660;41.768;26.198;2022-07-05T14:01:20;3.47;;;2.75;;
9248;SDS011;4660;41.768;26.198;2022-07-05T14:03:52;2.80;;;2.55;;
9248;SDS011;4660;41.768;26.198;2022-07-05T14:06:19;2.75;;;2.17;;
9248;SDS011;4660;41.768;26.198;2022-07-05T14:08:45;4.47;;;2.50;;
9248;SDS011;4660;41.768;26.198;2022-07-05T14:11:10;3.83;;;2.63;;
9248;SDS011;4660;41.768;26.198;2022-07-05T14:13:38;5.18;;;2.40;;
9248;SDS011;4660;41.768;26.198;2022-07-05T14:16:04;6.28;;;2.65;;
9248;SDS011;4660;41.768;26.198;2022-07-05T14:18:30;3.25;;;2.33;;
9248;SDS011;4660;41.768;26.198;2022-07-05T14:20:56;5.15;;;2.67;;
9248;SDS011;4660;41.768;26.198;2022-07-05T14:23:21;6.50;;;3.05;;
9248;SDS011;4660;41.768;26.198;2022-07-05T14:25:47;5.32;;;2.90;;
9248;SDS011;4660;41.768;26.198;2022-07-05T14:28:12;3.60;;;2.47;;
9248;SDS011;4660;41.768;26.198;2022-07-05T14:30:39;3.13;;;2.70;;
9248;SDS011;4660;41.768;26.198;2022-07-05T14:33:08;4.32;;;3.22;;
9248;SDS011;4660;41.768;26.198;2022-07-05T14:35:34;4.63;;;2.80;;
9248;SDS011;4660;41.768;26.198;2022-07-05T14:38:00;2.50;;;2.30;;
9248;SDS011;4660;41.768;26.198;2022-07-05T14:40:28;3.88;;;2.38;;
9248;SDS011;4660;41.768;26.198;2022-07-05T14:42:55;3.65;;;3.00;;
9248;SDS011;4660;41.768;26.198;2022-07-05T14:45:23;3.58;;;2.80;;
9248;SDS011;4660;41.768;26.198;2022-07-05T14:47:49;10.32;;;2.60;;
9248;SDS011;4660;41.768;26.198;2022-07-05T14:50:15;4.80;;;2.60;;
9248;SDS011;4660;41.768;26.198;2022-07-05T14:52:41;7.05;;;2.25;;
9248;SDS011;4660;41.768;26.198;2022-07-05T14:55:07;4.47;;;2.42;;
9248;SDS011;4660;41.768;26.198;2022-07-05T14:57:34;4.32;;;2.58;;
9248;SDS011;4660;41.768;26.198;2022-07-05T15:00:04;2.83;;;2.40;;
9248;SDS011;4660;41.768;26.198;2022-07-05T15:02:32;5.45;;;2.80;;
9248;SDS011;4660;41.768;26.198;2022-07-05T15:04:57;3.22;;;2.60;;
9248;SDS011;4660;41.768;26.198;2022-07-05T15:07:23;4.53;;;2.60;;
9248;SDS011;4660;41.768;26.198;2022-07-05T15:09:48;4.93;;;2.60;;
9248;SDS011;4660;41.768;26.198;2022-07-05T15:12:14;3.03;;;2.22;;
9248;SDS011;4660;41.768;26.198;2022-07-05T15:14:39;3.10;;;2.30;;
9248;SDS011;4660;41.768;26.198;2022-07-05T15:17:05;3.97;;;2.20;;
9248;SDS011;4660;41.768;26.198;2022-07-05T15:19:30;4.40;;;2.88;;